createdAt,value
2019-01-22T00:00:04.636Z,-0.96
2019-01-22T00:01:04.695Z,-0.99
2019-01-22T00:02:05.396Z,-0.93
2019-01-22T00:03:06.173Z,-1.01
2019-01-22T00:04:06.909Z,-0.99
2019-01-22T00:05:07.762Z,-0.96
2019-01-22T00:06:09.024Z,-0.97
2019-01-22T00:07:08.967Z,-1.01
2019-01-22T00:08:09.723Z,-0.96
2019-01-22T00:09:10.189Z,-0.91
2019-01-22T00:10:10.916Z,-0.97
2019-01-22T00:11:11.392Z,-1
2019-01-22T00:12:12.426Z,-0.93
2019-01-22T00:13:12.886Z,-0.96
2019-01-22T00:14:13.603Z,-0.96
2019-01-22T00:15:15.126Z,-0.94
2019-01-22T00:16:14.885Z,-0.97
2019-01-22T00:17:15.337Z,-0.87
2019-01-22T00:18:15.801Z,-0.91
2019-01-22T00:19:16.534Z,-0.99
2019-01-22T00:20:16.960Z,-0.99
2019-01-22T00:21:18.409Z,-0.91
2019-01-22T00:22:19.570Z,-0.94
2019-01-22T00:23:20.061Z,-1.01
2019-01-22T00:24:21.602Z,-0.99
2019-01-22T00:25:21.964Z,-0.97
2019-01-22T00:26:22.429Z,-0.99
2019-01-22T00:27:23.879Z,-0.97
2019-01-22T00:28:25.725Z,-0.97
2019-01-22T00:29:24.910Z,-0.99
2019-01-22T00:30:25.483Z,-1
2019-01-22T00:31:26.509Z,-0.99
2019-01-22T00:32:27.673Z,-1.04
2019-01-22T00:33:29.420Z,-1.06
2019-01-22T00:34:30.170Z,-1.12
2019-01-22T00:35:31.410Z,-1.11
2019-01-22T00:36:31.856Z,-1.11
2019-01-22T00:37:32.576Z,-1.07
2019-01-22T00:38:33.285Z,-1.03
2019-01-22T00:39:33.731Z,-0.99
2019-01-22T00:40:35.010Z,-0.96
2019-01-22T00:41:35.237Z,-1.01
2019-01-22T00:42:36.359Z,-0.94
2019-01-22T00:43:37.375Z,-0.87
2019-01-22T00:44:37.981Z,-0.94
2019-01-22T00:45:38.755Z,-0.89
2019-01-22T00:46:39.196Z,-0.85
2019-01-22T00:47:40.911Z,-0.72
2019-01-22T00:48:41.381Z,-0.75
2019-01-22T00:49:41.550Z,-0.72
2019-01-22T00:50:42.748Z,-0.74
2019-01-22T00:51:43.206Z,-0.74
2019-01-22T00:52:45.687Z,-0.8
2019-01-22T00:53:44.949Z,-0.77
2019-01-22T00:54:45.664Z,-0.8
2019-01-22T00:55:46.603Z,-0.8
2019-01-22T00:56:47.081Z,-0.72
2019-01-22T00:57:47.239Z,-0.69
2019-01-22T00:58:47.722Z,-0.7
2019-01-22T00:59:48.220Z,-0.78
2019-01-22T01:00:48.658Z,-0.87
2019-01-22T01:01:49.978Z,-0.96
2019-01-22T01:02:50.323Z,-0.93
2019-01-22T01:03:50.778Z,-0.99
2019-01-22T01:04:51.768Z,-1.06
2019-01-22T01:05:52.926Z,-1.01
2019-01-22T01:06:53.380Z,-1.07
2019-01-22T01:07:54.550Z,-1
2019-01-22T01:08:55.270Z,-0.93
2019-01-22T01:09:56.342Z,-0.89
2019-01-22T01:10:57.987Z,-0.99
2019-01-22T01:11:57.547Z,-0.96
2019-01-22T01:12:58.546Z,-1.04
2019-01-22T01:13:59.274Z,-1
2019-01-22T01:15:00.000Z,-1.01
2019-01-22T01:16:00.245Z,-1.11
2019-01-22T01:17:01.981Z,-1.07
2019-01-22T01:18:02.133Z,-1.15
2019-01-22T01:19:03.298Z,-1.14
2019-01-22T01:20:05.288Z,-1.03
2019-01-22T01:21:05.619Z,-1.04
2019-01-22T01:22:05.788Z,-1.04
2019-01-22T01:23:06.949Z,-1.03
2019-01-22T01:24:08.405Z,-1.01
2019-01-22T01:25:08.989Z,-1
2019-01-22T01:26:08.917Z,-1
2019-01-22T01:27:09.935Z,-1.14
2019-01-22T01:28:10.955Z,-1.12
2019-01-22T01:29:11.404Z,-1.15
2019-01-22T01:30:11.998Z,-1.22
2019-01-22T01:31:12.476Z,-1.21
2019-01-22T01:32:13.233Z,-1.27
2019-01-22T01:33:13.714Z,-1.3
2019-01-22T01:34:13.909Z,-1.38
2019-01-22T01:35:14.359Z,-1.38
2019-01-22T01:36:15.010Z,-1.27
2019-01-22T01:37:16.214Z,-1.12
2019-01-22T01:38:16.105Z,-1.21
2019-01-22T01:39:17.256Z,-1.17
2019-01-22T01:40:17.704Z,-1.18
2019-01-22T01:41:18.808Z,-1.09
2019-01-22T01:42:19.835Z,-1.12
2019-01-22T01:43:20.566Z,-1.14
2019-01-22T01:44:21.009Z,-1.15
2019-01-22T01:45:21.463Z,-1.21
2019-01-22T01:46:23.675Z,-1.24
2019-01-22T01:47:23.164Z,-1.3
2019-01-22T01:48:23.338Z,-1.3
2019-01-22T01:49:24.078Z,-1.27
2019-01-22T01:50:24.834Z,-1.3
2019-01-22T01:51:25.561Z,-1.33
2019-01-22T01:52:26.030Z,-1.32
2019-01-22T01:53:27.055Z,-1.45
2019-01-22T01:54:27.504Z,-1.54
2019-01-22T01:55:29.475Z,-1.48
2019-01-22T01:56:28.389Z,-1.51
2019-01-22T01:57:29.227Z,-1.63
2019-01-22T01:58:29.980Z,-1.53
2019-01-22T01:59:30.757Z,-1.54
2019-01-22T02:00:31.200Z,-1.45
2019-01-22T02:01:31.651Z,-1.46
2019-01-22T02:02:32.087Z,-1.39
2019-01-22T02:03:33.133Z,-1.32
2019-01-22T02:04:33.847Z,-1.27
2019-01-22T02:05:34.487Z,-1.27
2019-01-22T02:06:35.100Z,-1.27
2019-01-22T02:07:35.554Z,-1.3
2019-01-22T02:08:36.265Z,-1.32
2019-01-22T02:09:37.009Z,-1.29
2019-01-22T02:10:37.998Z,-1.33
2019-01-22T02:11:37.718Z,-1.35
2019-01-22T02:12:39.212Z,-1.29
2019-01-22T02:13:39.093Z,-1.27
2019-01-22T02:14:40.099Z,-1.27
2019-01-22T02:15:40.100Z,-1.29
2019-01-22T02:16:41.300Z,-1.3
2019-01-22T02:17:42.037Z,-1.3
2019-01-22T02:18:42.812Z,-1.3
2019-01-22T02:19:43.113Z,-1.32
2019-01-22T02:20:43.570Z,-1.3
2019-01-22T02:21:45.018Z,-1.36
2019-01-22T02:22:45.039Z,-1.39
2019-01-22T02:23:45.475Z,-1.54
2019-01-22T02:24:46.488Z,-1.54
2019-01-22T02:25:47.474Z,-1.53
2019-01-22T02:26:47.646Z,-1.51
2019-01-22T02:27:48.657Z,-1.48
2019-01-22T02:28:50.113Z,-1.58
2019-01-22T02:29:50.570Z,-1.53
2019-01-22T02:30:52.013Z,-1.54
2019-01-22T02:31:54.233Z,-1.48
2019-01-22T02:32:54.154Z,-1.48
2019-01-22T02:33:55.150Z,-1.42
2019-01-22T02:34:55.374Z,-1.4
2019-01-22T02:35:55.842Z,-1.42
2019-01-22T02:36:56.528Z,-1.45
2019-01-22T02:37:56.821Z,-1.42
2019-01-22T02:38:57.828Z,-1.36
2019-01-22T02:39:58.672Z,-1.43
2019-01-22T02:41:00.503Z,-1.42
2019-01-22T02:42:00.628Z,-1.48
2019-01-22T02:43:01.088Z,-1.43
2019-01-22T02:44:02.097Z,-1.43
2019-01-22T02:45:03.384Z,-1.58
2019-01-22T02:46:03.834Z,-1.56
2019-01-22T02:47:05.081Z,-1.57
2019-01-22T02:48:05.806Z,-1.57
2019-01-22T02:49:06.830Z,-1.58
2019-01-22T02:50:09.174Z,-1.63
2019-01-22T02:51:08.314Z,-1.69
2019-01-22T02:52:09.867Z,-1.61
2019-01-22T02:53:10.369Z,-1.56
2019-01-22T02:54:11.410Z,-1.66
2019-01-22T02:55:11.443Z,-1.6
2019-01-22T02:56:12.447Z,-1.66
2019-01-22T02:57:12.801Z,-1.64
2019-01-22T02:58:13.543Z,-1.66
2019-01-22T02:59:14.519Z,-1.58
2019-01-22T03:00:14.264Z,-1.54
2019-01-22T03:01:15.028Z,-1.6
2019-01-22T03:02:15.477Z,-1.54
2019-01-22T03:03:16.522Z,-1.54
2019-01-22T03:04:17.959Z,-1.6
2019-01-22T03:05:18.954Z,-1.63
2019-01-22T03:06:19.259Z,-1.63
2019-01-22T03:07:19.440Z,-1.64
2019-01-22T03:08:20.551Z,-1.63
2019-01-22T03:09:21.550Z,-1.78
2019-01-22T03:10:22.040Z,-1.68
2019-01-22T03:11:22.212Z,-1.74
2019-01-22T03:12:22.944Z,-1.75
2019-01-22T03:13:23.411Z,-1.81
2019-01-22T03:14:24.148Z,-1.75
2019-01-22T03:15:24.958Z,-1.71
2019-01-22T03:16:25.162Z,-1.78
2019-01-22T03:17:26.165Z,-1.78
2019-01-22T03:18:27.157Z,-1.76
2019-01-22T03:19:27.205Z,-1.78
2019-01-22T03:20:27.940Z,-1.87
2019-01-22T03:21:29.105Z,-1.78
2019-01-22T03:22:29.576Z,-1.86
2019-01-22T03:23:29.722Z,-1.81
2019-01-22T03:24:30.451Z,-1.74
2019-01-22T03:25:31.189Z,-1.89
2019-01-22T03:26:31.977Z,-1.82
2019-01-22T03:27:33.470Z,-1.82
2019-01-22T03:28:33.744Z,-1.81
2019-01-22T03:29:34.759Z,-1.9
2019-01-22T03:30:36.065Z,-1.94
2019-01-22T03:31:37.427Z,-1.99
2019-01-22T03:32:37.593Z,-2.02
2019-01-22T03:33:37.474Z,-2.04
2019-01-22T03:34:38.240Z,-1.92
2019-01-22T03:35:38.947Z,-1.87
2019-01-22T03:36:40.530Z,-1.74
2019-01-22T03:37:39.965Z,-1.78
2019-01-22T03:38:40.930Z,-1.84
2019-01-22T03:39:41.662Z,-1.79
2019-01-22T03:40:42.359Z,-1.72
2019-01-22T03:41:43.051Z,-1.71
2019-01-22T03:42:44.026Z,-1.68
2019-01-22T03:43:44.266Z,-1.71
2019-01-22T03:44:44.957Z,-1.78
2019-01-22T03:45:46.378Z,-1.61
2019-01-22T03:46:46.475Z,-1.71
2019-01-22T03:47:46.882Z,-1.66
2019-01-22T03:48:47.308Z,-1.68
2019-01-22T03:49:48.560Z,-1.63
2019-01-22T03:50:48.530Z,-1.66
2019-01-22T03:51:49.511Z,-1.66
2019-01-22T03:52:49.795Z,-1.6
2019-01-22T03:53:55.034Z,-1.6
2019-01-22T03:54:02.601Z,-1.57
2019-01-22T03:55:03.026Z,-1.58
2019-01-22T03:56:04.162Z,-1.54
2019-01-22T03:57:06.255Z,-1.51
2019-01-22T03:58:06.947Z,-1.54
2019-01-22T03:59:07.244Z,-1.46
2019-01-22T04:00:08.222Z,-1.48
2019-01-22T04:01:08.650Z,-1.42
2019-01-22T04:02:09.347Z,-1.42
2019-01-22T04:03:10.608Z,-1.39
2019-01-22T04:04:11.289Z,-1.45
2019-01-22T04:05:11.955Z,-1.42
2019-01-22T04:06:12.376Z,-1.46
2019-01-22T04:07:14.645Z,-1.48
2019-01-22T04:08:13.683Z,-1.57
2019-01-22T04:09:15.250Z,-1.66
2019-01-22T04:10:15.938Z,-1.68
2019-01-22T04:11:16.353Z,-1.6
2019-01-22T04:12:17.872Z,-1.69
2019-01-22T04:13:18.291Z,-1.69
2019-01-22T04:14:19.267Z,-1.68
2019-01-22T04:15:19.931Z,-1.72
2019-01-22T04:16:21.529Z,-1.69
2019-01-22T04:17:20.642Z,-1.64
2019-01-22T04:18:20.968Z,-1.58
2019-01-22T04:19:21.385Z,-1.61
2019-01-22T04:20:22.915Z,-1.57
2019-01-22T04:21:23.623Z,-1.57
2019-01-22T04:22:24.335Z,-1.57
2019-01-22T04:23:25.027Z,-1.6
2019-01-22T04:24:25.732Z,-1.6
2019-01-22T04:25:27.574Z,-1.63
2019-01-22T04:26:27.644Z,-1.61
2019-01-22T04:27:28.895Z,-1.57
2019-01-22T04:28:29.137Z,-1.53
2019-01-22T04:29:29.556Z,-1.48
2019-01-22T04:30:30.531Z,-1.53
2019-01-22T04:31:31.231Z,-1.54
2019-01-22T04:32:31.661Z,-1.53
2019-01-22T04:33:33.363Z,-1.61
2019-01-22T04:34:33.824Z,-1.57
2019-01-22T04:35:36.027Z,-1.5
2019-01-22T04:36:36.363Z,-1.61
2019-01-22T04:37:37.058Z,-1.48
2019-01-22T04:38:38.068Z,-1.5
2019-01-22T04:39:38.507Z,-1.5
2019-01-22T04:40:38.929Z,-1.5
2019-01-22T04:41:40.907Z,-1.48
2019-01-22T04:42:41.194Z,-1.42
2019-01-22T04:43:42.198Z,-1.54
2019-01-22T04:44:43.438Z,-1.46
2019-01-22T04:45:43.845Z,-1.43
2019-01-22T04:46:45.253Z,-1.5
2019-01-22T04:47:45.387Z,-1.58
2019-01-22T04:48:46.123Z,-1.64
2019-01-22T04:49:47.847Z,-1.61
2019-01-22T04:50:48.273Z,-1.72
2019-01-22T04:51:48.971Z,-1.76
2019-01-22T04:52:49.676Z,-1.74
2019-01-22T04:53:50.122Z,-1.72
2019-01-22T04:54:51.873Z,-1.75
2019-01-22T04:55:51.626Z,-1.78
2019-01-22T04:56:52.878Z,-1.79
2019-01-22T04:57:53.408Z,-1.71
2019-01-22T04:58:54.382Z,-1.66
2019-01-22T04:59:55.093Z,-1.64
2019-01-22T05:00:56.346Z,-1.68
2019-01-22T05:01:56.591Z,-1.76
2019-01-22T05:02:57.009Z,-1.75
2019-01-22T05:03:58.713Z,-1.82
2019-01-22T05:04:59.660Z,-1.86
2019-01-22T05:05:58.924Z,-1.72
2019-01-22T05:06:59.346Z,-1.74
2019-01-22T05:07:59.768Z,-1.75
2019-01-22T05:09:00.584Z,-1.84
2019-01-22T05:10:01.351Z,-1.72
2019-01-22T05:11:01.913Z,-1.72
2019-01-22T05:12:02.345Z,-1.72
2019-01-22T05:13:03.504Z,-1.71
2019-01-22T05:14:05.358Z,-1.71
2019-01-22T05:15:05.160Z,-1.82
2019-01-22T05:16:06.816Z,-1.92
2019-01-22T05:17:07.355Z,-1.99
2019-01-22T05:18:07.769Z,-2.04
2019-01-22T05:19:08.456Z,-2.15
2019-01-22T05:20:09.697Z,-2.11
2019-01-22T05:21:10.396Z,-2.02
2019-01-22T05:22:11.093Z,-2.1
2019-01-22T05:23:12.901Z,-2.08
2019-01-22T05:24:19.840Z,-2.07
2019-01-22T05:24:24.489Z,-2.02
2019-01-22T05:25:26.177Z,-2.13
2019-01-22T05:26:26.104Z,-2.1
2019-01-22T05:27:26.804Z,-2.1
2019-01-22T05:28:27.229Z,-2.02
2019-01-22T05:29:28.486Z,-1.97
2019-01-22T05:30:29.114Z,-2.07
2019-01-22T05:31:29.661Z,-2.04
2019-01-22T05:32:30.923Z,-2.07
2019-01-22T05:33:30.916Z,-1.96
2019-01-22T05:34:32.001Z,-1.97
2019-01-22T05:35:32.819Z,-2.1
2019-01-22T05:36:33.728Z,-2.13
2019-01-22T05:37:34.141Z,-2.11
2019-01-22T05:38:35.118Z,-2.02
2019-01-22T05:39:35.645Z,-2.1
2019-01-22T05:40:36.616Z,-2.18
2019-01-22T05:41:36.869Z,-2.04
2019-01-22T05:42:37.566Z,-2.1
2019-01-22T05:43:38.879Z,-2.08
2019-01-22T05:44:40.181Z,-2.08
2019-01-22T05:45:40.129Z,-2.05
2019-01-22T05:46:41.396Z,-2.17
2019-01-22T05:47:41.802Z,-2.11
2019-01-22T05:48:43.055Z,-2.14
2019-01-22T05:49:43.610Z,-2.17
2019-01-22T05:50:44.036Z,-2.2
2019-01-22T05:51:44.763Z,-2.26
2019-01-22T05:52:45.450Z,-2.42
2019-01-22T05:53:45.925Z,-2.39
2019-01-22T05:54:46.624Z,-2.42
2019-01-22T05:55:47.075Z,-2.45
2019-01-22T05:56:47.480Z,-2.51
2019-01-22T05:57:47.947Z,-2.51
2019-01-22T05:58:48.351Z,-2.61
2019-01-22T05:59:50.330Z,-2.57
2019-01-22T06:00:51.067Z,-2.69
2019-01-22T06:01:51.486Z,-2.65
2019-01-22T06:02:52.447Z,-2.5
2019-01-22T06:03:53.141Z,-2.58
2019-01-22T06:04:53.854Z,-2.61
2019-01-22T06:05:54.702Z,-2.7
2019-01-22T06:06:55.659Z,-2.69
2019-01-22T06:07:56.787Z,-2.75
2019-01-22T06:08:58.196Z,-2.8
2019-01-22T06:09:58.602Z,-2.76
2019-01-22T06:11:00.006Z,-2.75
2019-01-22T06:11:59.964Z,-2.75
2019-01-22T06:13:00.367Z,-2.83
2019-01-22T06:14:02.047Z,-2.84
2019-01-22T06:15:02.734Z,-2.86
2019-01-22T06:16:03.826Z,-2.81
2019-01-22T06:17:04.063Z,-2.99
2019-01-22T06:18:04.760Z,-2.94
2019-01-22T06:19:05.166Z,-2.81
2019-01-22T06:20:05.856Z,-2.81
2019-01-22T06:21:05.984Z,-2.81
2019-01-22T06:22:07.393Z,-2.8
2019-01-22T06:23:08.810Z,-2.81
2019-01-22T06:24:09.609Z,-2.96
2019-01-22T06:25:10.597Z,-2.84
2019-01-22T06:25:55.891Z,-2.83
2019-01-22T06:26:56.706Z,-2.8
2019-01-22T06:27:57.385Z,-2.8
2019-01-22T06:28:58.347Z,-2.76
2019-01-22T06:29:59.756Z,-2.8
2019-01-22T06:31:00.081Z,-2.78
2019-01-22T06:32:01.045Z,-2.68
2019-01-22T06:33:02.288Z,-2.78
2019-01-22T06:34:02.527Z,-2.75
2019-01-22T06:35:03.498Z,-2.78
2019-01-22T06:36:04.021Z,-2.69
2019-01-22T06:37:04.559Z,-2.73
2019-01-22T06:38:05.517Z,-2.68
2019-01-22T06:39:05.922Z,-2.72
2019-01-22T06:40:06.902Z,-2.72
2019-01-22T06:41:07.307Z,-2.69
2019-01-22T06:42:07.989Z,-2.63
2019-01-22T06:43:08.775Z,-2.63
2019-01-22T06:44:09.921Z,-2.66
2019-01-22T06:45:10.606Z,-2.62
2019-01-22T06:46:11.564Z,-2.58
2019-01-22T06:47:12.928Z,-2.62
2019-01-22T06:48:13.388Z,-2.66
2019-01-22T06:49:14.347Z,-2.57
2019-01-22T06:50:14.868Z,-2.62
2019-01-22T06:51:15.552Z,-2.68
2019-01-22T06:52:15.966Z,-2.73
2019-01-22T06:53:16.376Z,-2.75
2019-01-22T06:54:17.342Z,-2.81
2019-01-22T06:55:18.026Z,-2.72
2019-01-22T06:56:18.434Z,-2.78
2019-01-22T06:57:19.556Z,-2.78
2019-01-22T06:58:20.961Z,-2.76
2019-01-22T06:59:21.478Z,-2.66
2019-01-22T07:00:21.883Z,-2.63
2019-01-22T07:01:23.301Z,-2.61
2019-01-22T07:02:23.708Z,-2.61
2019-01-22T07:03:24.119Z,-2.73
2019-01-22T07:04:24.823Z,-2.62
2019-01-22T07:05:25.521Z,-2.54
2019-01-22T07:06:27.128Z,-2.55
2019-01-22T07:07:27.074Z,-2.65
2019-01-22T07:08:29.039Z,-2.57
2019-01-22T07:09:29.445Z,-2.66
2019-01-22T07:10:30.584Z,-2.58
2019-01-22T07:11:31.738Z,-2.63
2019-01-22T07:12:37.119Z,-2.65
2019-01-22T07:12:46.812Z,-2.65
2019-01-22T07:13:00.846Z,-2.57
2019-01-22T07:13:13.461Z,-2.55
2019-01-22T07:13:24.421Z,-2.57
2019-01-22T07:13:39.132Z,-2.7
2019-01-22T07:14:37.554Z,-2.63
2019-01-22T07:15:37.958Z,-2.65
2019-01-22T07:16:39.398Z,-2.55
2019-01-22T07:17:39.529Z,-2.61
2019-01-22T07:18:39.964Z,-2.62
2019-01-22T07:19:40.653Z,-2.61
2019-01-22T07:20:41.316Z,-2.61
2019-01-22T07:21:41.727Z,-2.57
2019-01-22T07:22:46.009Z,-2.65
2019-01-22T07:22:55.780Z,-2.55
2019-01-22T07:23:55.276Z,-2.68
2019-01-22T07:24:56.058Z,-2.55
2019-01-22T07:25:56.483Z,-2.62
2019-01-22T07:26:57.224Z,-2.58
2019-01-22T07:27:57.907Z,-2.55
2019-01-22T07:28:58.313Z,-2.51
2019-01-22T07:29:58.797Z,-2.51
2019-01-22T07:30:59.228Z,-2.61
2019-01-22T07:31:59.640Z,-2.61
2019-01-22T07:33:00.881Z,-2.51
2019-01-22T07:34:01.701Z,-2.65
2019-01-22T07:35:05.155Z,-2.54
2019-01-22T07:36:04.729Z,-2.62
2019-01-22T07:37:05.252Z,-2.62
2019-01-22T07:38:07.206Z,-2.57
2019-01-22T07:39:06.944Z,-2.57
2019-01-22T07:40:08.188Z,-2.52
2019-01-22T07:41:09.779Z,-2.55
2019-01-22T07:42:12.217Z,-2.52
2019-01-22T07:43:10.874Z,-2.47
2019-01-22T07:44:11.693Z,-2.52
2019-01-22T07:45:12.104Z,-2.54
2019-01-22T07:46:12.548Z,-2.42
2019-01-22T07:47:13.232Z,-2.47
2019-01-22T07:48:14.362Z,-2.45
2019-01-22T07:49:19.314Z,-2.5
2019-01-22T07:49:26.906Z,-2.51
2019-01-22T07:50:27.446Z,-2.45
2019-01-22T07:51:27.742Z,-2.47
2019-01-22T07:52:32.598Z,-2.28
2019-01-22T07:52:45.035Z,-2.39
2019-01-22T07:52:56.489Z,-2.22
2019-01-22T07:53:56.185Z,-2.15
2019-01-22T07:55:01.476Z,-2.11
2019-01-22T07:55:11.246Z,-2.15
2019-01-22T07:56:09.099Z,-2.1
2019-01-22T07:57:10.063Z,-2.04
2019-01-22T07:58:10.767Z,-2.07
2019-01-22T07:59:14.440Z,-2.05
2019-01-22T08:00:13.979Z,-2
2019-01-22T08:01:15.112Z,-2.02
2019-01-22T08:02:16.553Z,-1.94
2019-01-22T08:03:17.518Z,-1.96
2019-01-22T08:04:17.651Z,-1.92
2019-01-22T08:05:19.067Z,-1.99
2019-01-22T08:06:19.889Z,-2.02
2019-01-22T08:07:20.021Z,-1.93
2019-01-22T08:08:20.709Z,-1.96
2019-01-22T08:09:26.303Z,-2.17
2019-01-22T08:09:33.652Z,-2.13
2019-01-22T08:10:34.717Z,-2.1
2019-01-22T08:11:34.849Z,-2.1
2019-01-22T08:12:38.079Z,-2.13
2019-01-22T08:13:38.635Z,-2.07
2019-01-22T08:14:40.050Z,-1.99
2019-01-22T08:15:41.019Z,-2.02
2019-01-22T08:16:41.144Z,-1.89
2019-01-22T08:17:42.278Z,-1.89
2019-01-22T08:18:47.050Z,-1.84
2019-01-22T08:18:55.250Z,-1.82
2019-01-22T08:19:56.368Z,-1.75
2019-01-22T08:20:57.071Z,-1.76
2019-01-22T08:21:58.251Z,-1.71
2019-01-22T08:22:58.380Z,-1.75
2019-01-22T08:23:59.553Z,-1.72
2019-01-22T08:25:05.406Z,-1.76
2019-01-22T08:25:11.630Z,-1.72
2019-01-22T08:26:11.895Z,-1.74
2019-01-22T08:27:16.548Z,-1.6
2019-01-22T08:27:24.802Z,-1.63
2019-01-22T08:27:40.905Z,-1.66
2019-01-22T08:27:53.708Z,-1.63
2019-01-22T08:28:07.155Z,-1.68
2019-01-22T08:29:10.915Z,-1.63
2019-01-22T08:29:20.008Z,-1.58
2019-01-22T08:30:19.956Z,-1.6
2019-01-22T08:31:20.505Z,-1.54
2019-01-22T08:32:20.640Z,-1.54
2019-01-22T08:33:21.893Z,-1.51
2019-01-22T08:34:23.646Z,-1.53
2019-01-22T08:35:24.268Z,-1.43
2019-01-22T08:36:24.955Z,-1.46
2019-01-22T08:37:27.637Z,-1.53
2019-01-22T08:38:27.185Z,-1.51
2019-01-22T08:39:27.698Z,-1.54
2019-01-22T08:40:28.340Z,-1.5
2019-01-22T08:41:29.761Z,-1.48
2019-01-22T08:42:30.168Z,-1.48
2019-01-22T08:43:31.609Z,-1.4
2019-01-22T08:44:32.299Z,-1.43
2019-01-22T08:45:37.234Z,-1.4
2019-01-22T08:45:46.074Z,-1.43
2019-01-22T08:46:46.465Z,-1.53
2019-01-22T08:47:49.870Z,-1.45
2019-01-22T08:48:49.672Z,-1.54
2019-01-22T08:49:51.087Z,-1.56
2019-01-22T08:50:51.774Z,-1.53
2019-01-22T08:51:52.198Z,-1.57
2019-01-22T08:52:53.608Z,-1.56
2019-01-22T08:53:54.067Z,-1.5
2019-01-22T08:54:54.269Z,-1.6
2019-01-22T08:55:55.231Z,-1.48
2019-01-22T08:56:56.098Z,-1.45
2019-01-22T08:57:56.787Z,-1.33
2019-01-22T08:58:57.039Z,-1.33
2019-01-22T08:59:57.174Z,-1.25
2019-01-22T09:01:00.081Z,-1.32
2019-01-22T09:01:59.769Z,-1.25
2019-01-22T09:03:00.195Z,-1.27
2019-01-22T09:04:00.887Z,-1.39
2019-01-22T09:05:01.868Z,-1.33
2019-01-22T09:06:06.776Z,-1.27
2019-01-22T09:06:15.417Z,-1.3
2019-01-22T09:07:15.300Z,-1.25
2019-01-22T09:08:15.712Z,-1.22
2019-01-22T09:09:16.413Z,-1.14
2019-01-22T09:10:16.835Z,-1.06
2019-01-22T09:11:17.250Z,-1.17
2019-01-22T09:12:17.942Z,-0.97
2019-01-22T09:13:18.911Z,-1.12
2019-01-22T09:14:19.652Z,-1.09
2019-01-22T09:15:21.391Z,-1.14
2019-01-22T09:15:34.883Z,-1.09
2019-01-22T09:15:47.049Z,-1.12
2019-01-22T09:16:45.453Z,-1.11
2019-01-22T09:17:45.417Z,-1.15
2019-01-22T09:18:45.552Z,-1.11
2019-01-22T09:19:45.960Z,-1.09
2019-01-22T09:20:47.296Z,-1.01
2019-01-22T09:21:00.491Z,-1.04
2019-01-22T09:21:59.001Z,-0.96
2019-01-22T09:22:59.968Z,-0.91
2019-01-22T09:24:02.615Z,-0.78
2019-01-22T09:25:01.587Z,-0.77
2019-01-22T09:26:02.555Z,-0.78
2019-01-22T09:27:03.245Z,-0.64
2019-01-22T09:28:03.654Z,-0.64
2019-01-22T09:29:04.786Z,-0.7
2019-01-22T09:30:05.483Z,-0.6
2019-01-22T09:31:05.895Z,-0.42
2019-01-22T09:32:06.726Z,-0.44
2019-01-22T09:33:07.420Z,-0.38
2019-01-22T09:34:08.672Z,-0.31
2019-01-22T09:35:11.602Z,-0.23
2019-01-22T09:36:13.017Z,-0.24
2019-01-22T09:37:18.100Z,0.02
2019-01-22T09:37:27.125Z,0.01
2019-01-22T09:38:28.248Z,0.08
2019-01-22T09:39:28.974Z,0.2
2019-01-22T09:40:29.945Z,0.47
2019-01-22T09:41:30.641Z,0.59
2019-01-22T09:42:31.774Z,0.7
2019-01-22T09:43:32.465Z,0.85
2019-01-22T09:44:33.433Z,1.02
2019-01-22T09:45:33.896Z,0.95
2019-01-22T09:46:36.121Z,1.2
2019-01-22T09:46:47.805Z,1.3
2019-01-22T09:47:47.378Z,1.56
2019-01-22T09:48:48.510Z,1.7
2019-01-22T09:49:48.963Z,1.85
2019-01-22T09:50:50.100Z,1.84
2019-01-22T09:51:51.521Z,2.03
2019-01-22T09:52:51.939Z,2.14
2019-01-22T09:53:53.351Z,2.14
2019-01-22T09:54:53.766Z,2.15
2019-01-22T09:56:01.593Z,2.22
2019-01-22T09:56:05.369Z,2.21
2019-01-22T09:57:06.196Z,2.25
2019-01-22T09:58:06.614Z,2.3
2019-01-22T09:59:08.028Z,2.58
2019-01-22T10:00:08.440Z,2.7
2019-01-22T10:01:09.137Z,2.94
2019-01-22T10:02:09.833Z,3.08
2019-01-22T10:03:14.246Z,3.03
2019-01-22T10:03:25.691Z,3.12
2019-01-22T10:03:38.173Z,3.13
2019-01-22T10:03:48.743Z,3.06
2019-01-22T10:04:47.130Z,3.26
2019-01-22T10:05:48.099Z,3.12
2019-01-22T10:06:48.073Z,2.98
2019-01-22T10:07:49.489Z,2.85
2019-01-22T10:08:49.918Z,2.76
2019-01-22T10:09:51.334Z,2.68
2019-01-22T10:10:51.470Z,2.68
2019-01-22T10:11:52.305Z,2.61
2019-01-22T10:12:53.299Z,2.36
2019-01-22T10:13:53.716Z,1.95
2019-01-22T10:14:54.831Z,1.98
2019-01-22T10:15:56.075Z,2.14
2019-01-22T10:16:56.220Z,2.16
2019-01-22T10:17:57.192Z,2.22
2019-01-22T10:18:58.623Z,2.18
2019-01-22T10:20:01.381Z,2.16
2019-01-22T10:20:13.723Z,2.19
2019-01-22T10:21:12.981Z,2.05
2019-01-22T10:22:13.401Z,1.81
2019-01-22T10:23:15.324Z,1.68
2019-01-22T10:24:17.730Z,1.61
2019-01-22T10:25:17.906Z,1.84
2019-01-22T10:26:21.759Z,2.21
2019-01-22T10:27:20.280Z,2.47
2019-01-22T10:28:20.700Z,2.61
2019-01-22T10:29:21.132Z,2.57
2019-01-22T10:30:24.325Z,2.73
2019-01-22T10:31:26.834Z,3.08
2019-01-22T10:31:38.140Z,3.12
2019-01-22T10:32:40.417Z,3.3
2019-01-22T10:32:51.824Z,3.31
2019-01-22T10:33:05.067Z,3.41
2019-01-22T10:33:17.096Z,3.53
2019-01-22T10:34:15.302Z,3.48
2019-01-22T10:35:15.489Z,3.52
2019-01-22T10:36:15.909Z,3.63
2019-01-22T10:37:16.331Z,3.92
2019-01-22T10:38:17.047Z,4.13
2019-01-22T10:39:19.637Z,4.16
2019-01-22T10:40:23.688Z,3.84
2019-01-22T10:40:32.387Z,3.94
2019-01-22T10:41:32.360Z,3.94
2019-01-22T10:42:34.056Z,3.76
2019-01-22T10:43:34.750Z,3.71
2019-01-22T10:44:37.371Z,3.96
2019-01-22T10:44:49.160Z,4
2019-01-22T10:45:48.462Z,4.12
2019-01-22T10:46:48.900Z,4.2
2019-01-22T10:47:51.777Z,4.24
2019-01-22T10:48:03.944Z,4.27
2019-01-22T10:49:02.271Z,4.14
2019-01-22T10:50:03.001Z,4.32
2019-01-22T10:51:03.419Z,4.66
2019-01-22T10:52:07.960Z,4.92
2019-01-22T10:52:17.859Z,5.02
2019-01-22T10:53:16.618Z,4.79
2019-01-22T10:54:19.291Z,4.46
2019-01-22T10:55:19.163Z,4.42
2019-01-22T10:56:20.827Z,4.25
2019-01-22T10:57:20.387Z,4.1
2019-01-22T10:58:21.526Z,4
2019-01-22T10:59:22.328Z,4.18
2019-01-22T11:00:23.320Z,4.58
2019-01-22T11:01:24.992Z,4.57
2019-01-22T11:02:24.179Z,4.43
2019-01-22T11:03:24.773Z,4.31
2019-01-22T11:04:25.189Z,4.31
2019-01-22T11:05:26.612Z,4.21
2019-01-22T11:06:27.313Z,3.82
2019-01-22T11:07:27.737Z,4
2019-01-22T11:08:28.171Z,4.18
2019-01-22T11:09:28.590Z,4.34
2019-01-22T11:10:29.011Z,4.45
2019-01-22T11:11:30.271Z,4.24
2019-01-22T11:12:30.456Z,3.96
2019-01-22T11:13:31.956Z,3.71
2019-01-22T11:14:32.334Z,3.81
2019-01-22T11:15:32.763Z,4.03
2019-01-22T11:16:34.024Z,4.22
2019-01-22T11:17:34.726Z,4.12
2019-01-22T11:18:35.238Z,4.4
2019-01-22T11:19:35.931Z,4.43
2019-01-22T11:20:39.681Z,4.3
2019-01-22T11:20:49.629Z,4.24
2019-01-22T11:21:48.990Z,4.21
2019-01-22T11:22:49.689Z,4.48
2019-01-22T11:23:50.727Z,4.56
2019-01-22T11:24:54.389Z,4.64
2019-01-22T11:25:55.366Z,4.49
2019-01-22T11:26:55.820Z,4.34
2019-01-22T11:27:57.178Z,4.06
2019-01-22T11:28:57.325Z,4.06
2019-01-22T11:29:58.017Z,3.91
2019-01-22T11:30:58.179Z,3.67
2019-01-22T11:31:59.857Z,3.63
2019-01-22T11:33:00.831Z,3.59
2019-01-22T11:34:01.085Z,3.71
2019-01-22T11:35:01.841Z,4
2019-01-22T11:36:02.717Z,4.46
2019-01-22T11:37:03.484Z,4.79
2019-01-22T11:38:04.465Z,5.04
2019-01-22T11:38:16.543Z,5.07
2019-01-22T11:39:17.919Z,5.2
2019-01-22T11:40:18.301Z,4.95
2019-01-22T11:41:19.279Z,5.01
2019-01-22T11:42:19.696Z,5.02
2019-01-22T11:43:24.841Z,4.67
2019-01-22T11:43:34.516Z,4.6
2019-01-22T11:44:34.004Z,4
2019-01-22T11:45:34.745Z,4.03
2019-01-22T11:46:35.555Z,3.88
2019-01-22T11:47:36.248Z,3.71
2019-01-22T11:48:36.750Z,3.71
2019-01-22T11:49:37.746Z,3.82
2019-01-22T11:50:38.722Z,3.63
2019-01-22T11:51:39.523Z,3.71
2019-01-22T11:52:39.867Z,3.92
2019-01-22T11:53:40.344Z,3.68
2019-01-22T11:54:40.765Z,3.43
2019-01-22T11:55:41.468Z,3.33
2019-01-22T11:56:42.383Z,3.29
2019-01-22T11:57:43.210Z,3.27
2019-01-22T11:58:43.964Z,3.22
2019-01-22T11:59:44.104Z,3.29
2019-01-22T12:00:44.990Z,3.41
2019-01-22T12:01:47.948Z,3.3
2019-01-22T12:02:46.623Z,3.4
2019-01-22T12:03:48.571Z,3.22
2019-01-22T12:04:48.662Z,3.22
2019-01-22T12:05:54.196Z,3.27
2019-01-22T12:06:49.896Z,3.16
2019-01-22T12:07:50.881Z,3.09
2019-01-22T12:08:51.022Z,3.09
2019-01-22T12:09:51.442Z,3.09
2019-01-22T12:10:52.582Z,3.33
2019-01-22T12:11:53.323Z,3.3
2019-01-22T12:12:53.748Z,3.41
2019-01-22T12:14:07.798Z,3.18
2019-01-22T12:15:07.242Z,3.11
2019-01-22T12:16:07.942Z,3
2019-01-22T12:17:08.651Z,2.93
2019-01-22T12:18:09.350Z,2.94
2019-01-22T12:19:09.488Z,3.06
2019-01-22T12:20:10.991Z,3.24
2019-01-22T12:21:15.623Z,3.27
2019-01-22T12:21:27.329Z,3.3
2019-01-22T12:22:26.342Z,3.15
2019-01-22T12:23:27.038Z,3.29
2019-01-22T12:24:27.475Z,3.19
2019-01-22T12:25:28.959Z,3.08
2019-01-22T12:26:29.721Z,3.11
2019-01-22T12:27:30.267Z,3.21
2019-01-22T12:28:30.715Z,3.36
2019-01-22T12:29:31.431Z,3.48
2019-01-22T12:30:32.126Z,3.46
2019-01-22T12:31:32.132Z,3.48
2019-01-22T12:32:33.009Z,3.29
2019-01-22T12:33:33.714Z,3.24
2019-01-22T12:34:34.308Z,3.24
2019-01-22T12:35:35.285Z,3.45
2019-01-22T12:36:38.462Z,3.53